Time;durP1;ratioP1;P1;durP2;ratioP2;P2;SDS_P1;SDS_P2;PMS_P1;PMS_P2;Temp;Humidity;BMP_temperature;BMP_pressure;BME280_temperature;BME280_humidity;BME280_pressure;Samples;Min_cycle;Max_cycle;Signal;HPM_P1;HPM_P2
2023/10/10 00:00:27;;;;;;;21.25;9.73;;;14.30;99.90;;;;;;5054745;28;20036;-52
2023/10/10 00:02:54;;;;;;;31.52;13.15;;;14.30;99.90;;;;;;5058271;28;20040;-51
2023/10/10 00:05:33;;;;;;;20.08;10.38;;;14.30;99.90;;;;;;5058613;28;20432;-51
2023/10/10 00:08:00;;;;;;;24.77;10.60;;;14.30;99.90;;;;;;5057673;28;20072;-52
2023/10/10 00:10:27;;;;;;;25.67;10.88;;;14.30;99.90;;;;;;5040845;28;20358;-52
2023/10/10 00:12:53;;;;;;;26.23;11.35;;;14.30;99.90;;;;;;5058993;28;20029;-51
2023/10/10 00:15:24;;;;;;;28.73;13.00;;;14.30;99.90;;;;;;5058885;28;20410;-52
2023/10/10 00:17:50;;;;;;;27.60;12.15;;;14.30;99.90;;;;;;5057711;28;20067;-52
2023/10/10 00:20:20;;;;;;;24.60;12.15;;;14.40;99.90;;;;;;5058596;28;20430;-52
2023/10/10 00:22:47;;;;;;;;;;;14.40;99.90;;;;;;5058893;28;20050;-52
2023/10/10 00:25:23;;;;;;;28.67;12.88;;;14.40;99.90;;;;;;5057500;28;19917;-51
2023/10/10 00:27:55;;;;;;;24.60;11.73;;;14.40;99.90;;;;;;5058049;28;20032;-51
2023/10/10 00:30:22;;;;;;;27.80;12.98;;;14.40;99.90;;;;;;5058099;28;20037;-48
2023/10/10 00:32:50;;;;;;;27.60;11.35;;;14.50;99.90;;;;;;5058244;28;20104;-51
2023/10/10 00:35:18;;;;;;;27.73;11.65;;;14.50;99.90;;;;;;5057281;28;20021;-51
2023/10/10 00:37:45;;;;;;;25.73;11.93;;;14.60;99.90;;;;;;5058407;28;20462;-50
2023/10/10 00:40:15;;;;;;;30.83;11.93;;;14.60;99.90;;;;;;5057808;28;20029;-51
2023/10/10 00:42:41;;;;;;;;;;;14.60;99.90;;;;;;5058527;28;20036;-52
2023/10/10 00:45:12;;;;;;;26.23;12.65;;;14.60;99.90;;;;;;5058243;28;19913;-51
2023/10/10 00:47:48;;;;;;;25.08;12.05;;;14.60;99.90;;;;;;5058336;28;20041;-51
2023/10/10 00:50:17;;;;;;;31.80;12.25;;;14.60;99.90;;;;;;5056892;28;20041;-51
2023/10/10 00:53:00;;;;;;;26.30;11.85;;;14.60;99.90;;;;;;5058028;28;20025;-51
2023/10/10 00:55:26;;;;;;;32.95;11.90;;;14.60;99.90;;;;;;5057579;28;20037;-51
2023/10/10 00:57:58;;;;;;;23.27;10.20;;;14.70;99.90;;;;;;5057991;28;20085;-51
2023/10/10 01:00:25;;;;;;;25.95;11.93;;;14.70;99.90;;;;;;5056697;28;20033;-51
2023/10/10 01:03:06;;;;;;;27.85;10.75;;;14.70;99.90;;;;;;5056706;28;20033;-51
2023/10/10 01:05:42;;;;;;;30.15;11.55;;;14.70;99.90;;;;;;5057874;28;20411;-52
2023/10/10 01:08:08;;;;;;;26.90;10.45;;;14.70;99.90;;;;;;5057871;28;20041;-52
2023/10/10 01:10:43;;;;;;;29.40;11.85;;;14.80;99.90;;;;;;5058016;28;20347;-51
2023/10/10 01:13:10;;;;;;;21.52;10.73;;;14.80;99.90;;;;;;5057294;28;20029;-51
2023/10/10 01:15:37;;;;;;;24.17;11.38;;;14.80;99.90;;;;;;5057638;28;20033;-51
2023/10/10 01:18:03;;;;;;;24.80;11.45;;;14.80;99.90;;;;;;5057686;28;20029;-52
2023/10/10 01:20:36;;;;;;;29.48;12.23;;;14.80;99.90;;;;;;5057459;28;20442;-51
2023/10/10 01:23:02;;;;;;;27.52;11.77;;;14.80;99.90;;;;;;5057531;28;20042;-51
2023/10/10 01:25:42;;;;;;;26.30;11.40;;;14.70;99.90;;;;;;5056387;28;20374;-51
2023/10/10 01:31:04;;;;;;;22.02;10.65;;;14.70;99.90;;;;;;5057141;28;20033;-51
2023/10/10 01:33:36;;;;;;;24.80;11.13;;;14.70;99.90;;;;;;5057501;28;20025;-52
2023/10/10 01:36:11;;;;;;;24.27;11.30;;;14.60;99.90;;;;;;5057418;28;20346;-51
2023/10/10 01:39:07;;;;;;;24.73;10.00;;;14.50;99.90;;;;;;5057621;28;20338;-52
2023/10/10 01:41:39;;;;;;;26.58;11.20;;;14.50;99.90;;;;;;5055924;28;20121;-52
2023/10/10 01:44:10;;;;;;;24.38;11.63;;;14.50;99.90;;;;;;5057267;28;20453;-51
2023/10/10 01:46:36;;;;;;;25.08;11.45;;;14.40;99.90;;;;;;5057057;28;20037;-51
2023/10/10 01:49:02;;;;;;;23.60;11.75;;;14.30;99.90;;;;;;5057114;28;20098;-51
2023/10/10 01:51:33;;;;;;;23.70;9.75;;;14.30;99.90;;;;;;5056977;28;20438;-51
2023/10/10 01:54:11;;;;;;;26.77;10.23;;;14.20;99.90;;;;;;5055902;28;20025;-52
2023/10/10 01:56:38;;;;;;;25.02;11.00;;;14.20;99.90;;;;;;5040715;28;20186;-52
2023/10/10 01:59:04;;;;;;;24.70;10.38;;;14.20;99.90;;;;;;5056723;28;20025;-52
2023/10/10 02:01:31;;;;;;;33.13;12.10;;;14.20;99.90;;;;;;5056759;28;20063;-51
2023/10/10 02:03:58;;;;;;;28.05;11.93;;;14.20;99.90;;;;;;5056797;28;20533;-52
2023/10/10 02:06:25;;;;;;;31.90;12.23;;;14.20;99.90;;;;;;5055357;28;20057;-52
2023/10/10 02:09:11;;;;;;;23.85;9.75;;;14.10;99.90;;;;;;5056815;28;20108;-52
2023/10/10 02:11:49;;;;;;;24.67;10.27;;;14.10;99.90;;;;;;5055560;28;20041;-51
2023/10/10 02:14:25;;;;;;;23.52;9.73;;;14.10;99.90;;;;;;5056535;28;20036;-52
2023/10/10 02:16:54;;;;;;;19.40;9.63;;;14.10;99.90;;;;;;5056374;28;20053;-51
2023/10/10 02:19:40;;;;;;;27.07;11.67;;;14.10;99.90;;;;;;5055385;28;20115;-52
2023/10/10 02:22:22;;;;;;;24.40;10.85;;;14.10;99.90;;;;;;5056453;28;20377;-51
2023/10/10 02:24:51;;;;;;;30.80;11.73;;;14.10;99.90;;;;;;5055487;28;20450;-51
2023/10/10 02:27:22;;;;;;;24.55;9.55;;;14.10;99.90;;;;;;5056219;28;20163;-51
2023/10/10 02:29:48;;;;;;;24.90;9.73;;;14.10;99.90;;;;;;5055724;28;20548;-50
2023/10/10 02:32:19;;;;;;;25.65;10.75;;;14.10;99.90;;;;;;5054975;28;20033;-48
2023/10/10 02:34:51;;;;;;;25.25;10.25;;;14.00;99.90;;;;;;5055999;28;20025;-48
2023/10/10 02:42:50;;;;;;;21.85;9.65;;;14.10;99.90;;;;;;5059336;28;20047;-48
2023/10/10 02:45:17;;;;;;;28.35;10.48;;;14.10;99.90;;;;;;5056007;28;20496;-48
2023/10/10 02:47:52;;;;;;;19.50;9.20;;;14.20;99.90;;;;;;5056282;28;20033;-52
2023/10/10 02:50:40;;;;;;;23.17;10.85;;;14.20;99.90;;;;;;5055471;28;20035;-52
2023/10/10 02:53:07;;;;;;;27.00;10.15;;;14.20;99.90;;;;;;5055598;28;20032;-52
2023/10/10 02:55:40;;;;;;;31.55;11.70;;;14.20;99.90;;;;;;5055806;28;20354;-52
2023/10/10 02:58:20;;;;;;;20.60;9.23;;;14.20;99.90;;;;;;5054744;28;20033;-52
2023/10/10 03:00:58;;;;;;;21.65;10.25;;;14.20;99.90;;;;;;5055420;28;20044;-52
2023/10/10 03:03:24;;;;;;;23.10;9.95;;;14.20;99.90;;;;;;5055691;28;20327;-52
2023/10/10 03:05:50;;;;;;;28.17;10.82;;;14.20;99.90;;;;;;5055177;28;20142;-50
2023/10/10 03:08:34;;;;;;;27.83;11.77;;;14.20;99.90;;;;;;5055427;28;20112;-49
2023/10/10 03:11:00;;;;;;;28.60;12.52;;;14.20;99.90;;;;;;5054181;28;20416;-51
2023/10/10 03:13:30;;;;;;;32.13;12.18;;;14.20;99.90;;;;;;5055321;28;20450;-52
2023/10/10 03:16:11;;;;;;;27.95;12.70;;;14.30;99.90;;;;;;5055011;28;20037;-52
2023/10/10 03:18:37;;;;;;;29.83;11.63;;;14.30;99.90;;;;;;5055239;28;20021;-51
2023/10/10 03:29:11;;;;;;;28.40;13.10;;;14.40;99.90;;;;;;5033860;28;20045;-52
2023/10/10 03:31:47;;;;;;;27.90;11.52;;;14.50;99.90;;;;;;5054065;28;20133;-51
2023/10/10 03:34:30;;;;;;;29.58;11.80;;;14.40;99.90;;;;;;5055063;28;20029;-52
2023/10/10 03:37:20;;;;;;;25.60;10.60;;;14.40;99.90;;;;;;5054829;28;20068;-51
2023/10/10 03:40:05;;;;;;;28.10;11.73;;;14.50;99.90;;;;;;5055169;28;20029;-51
2023/10/10 05:24:17;;;;;;;22.55;10.15;;;14.80;99.90;;;;;;5067253;28;20362;-47
2023/10/10 05:26:49;;;;;;;18.92;9.10;;;14.90;99.90;;;;;;5057348;28;20110;-48
2023/10/10 05:29:19;;;;;;;23.30;9.57;;;14.90;99.90;;;;;;5057621;28;20112;-49
2023/10/10 05:31:45;;;;;;;;;;;14.90;99.90;;;;;;5056949;28;20421;-48
2023/10/10 05:34:11;;;;;;;18.48;7.70;;;14.90;99.90;;;;;;5057427;28;20375;-49
2023/10/10 05:36:37;;;;;;;19.65;8.65;;;14.90;99.90;;;;;;5056437;28;20104;-52
2023/10/10 05:39:03;;;;;;;18.13;7.50;;;14.90;99.90;;;;;;5057210;28;20100;-48
2023/10/10 05:41:29;;;;;;;17.00;7.28;;;14.90;99.90;;;;;;5057075;28;20357;-48
2023/10/10 05:43:59;;;;;;;16.83;8.63;;;14.90;99.90;;;;;;5057029;28;20024;-49
2023/10/10 05:46:25;;;;;;;16.02;8.30;;;14.90;99.90;;;;;;5057241;28;20040;-51
2023/10/10 05:48:51;;;;;;;15.88;7.50;;;14.80;99.90;;;;;;5057144;28;20037;-50
2023/10/10 05:51:17;;;;;;;18.50;8.18;;;14.90;99.90;;;;;;5056491;28;20128;-50
2023/10/10 05:53:42;;;;;;;14.48;6.30;;;14.90;99.90;;;;;;5055910;28;20025;-52
2023/10/10 05:56:15;;;;;;;18.85;7.22;;;14.90;99.90;;;;;;5056828;28;20060;-51
2023/10/10 05:58:44;;;;;;;18.45;8.25;;;14.90;99.90;;;;;;5055656;28;20027;-51
2023/10/10 06:01:12;;;;;;;13.80;7.05;;;14.90;99.90;;;;;;5056599;28;20041;-51
2023/10/10 06:03:40;;;;;;;15.57;8.13;;;14.90;99.90;;;;;;5056690;28;20029;-51
2023/10/10 06:06:06;;;;;;;12.93;6.78;;;14.90;99.90;;;;;;5056599;28;20494;-51
2023/10/10 06:08:31;;;;;;;14.77;6.85;;;14.90;99.90;;;;;;5056367;28;20098;-51
2023/10/10 06:10:57;;;;;;;15.18;6.85;;;14.90;99.90;;;;;;5056347;28;20086;-51
2023/10/10 06:13:24;;;;;;;14.27;7.22;;;14.90;99.90;;;;;;5056543;28;20370;-50
2023/10/10 06:15:50;;;;;;;16.63;7.72;;;14.90;99.90;;;;;;5055526;28;20033;-52
2023/10/10 06:18:17;;;;;;;13.20;7.13;;;14.90;99.90;;;;;;5055116;28;20119;-51
2023/10/10 06:20:44;;;;;;;17.80;7.65;;;14.90;99.90;;;;;;5056248;28;20025;-51
2023/10/10 06:23:11;;;;;;;18.23;7.72;;;14.80;99.90;;;;;;5055382;28;20028;-52
2023/10/10 06:25:37;;;;;;;16.45;7.57;;;14.80;99.90;;;;;;5055172;28;20450;-51
2023/10/10 06:28:05;;;;;;;14.68;7.97;;;14.80;99.90;;;;;;5056245;28;20361;-50
2023/10/10 06:30:36;;;;;;;19.23;8.15;;;14.80;99.90;;;;;;5055863;28;20029;-52
2023/10/10 06:33:15;;;;;;;15.63;7.55;;;14.80;99.90;;;;;;5056222;28;20338;-48
2023/10/10 06:35:51;;;;;;;16.77;8.35;;;14.70;99.90;;;;;;5056194;28;20025;-50
2023/10/10 06:38:17;;;;;;;16.73;8.82;;;14.70;99.90;;;;;;5055936;28;20075;-51
2023/10/10 06:40:52;;;;;;;16.48;8.95;;;14.70;99.90;;;;;;5055712;28;20146;-48
2023/10/10 06:43:20;;;;;;;16.52;8.30;;;14.60;99.90;;;;;;5055887;28;20041;-49
2023/10/10 06:45:52;;;;;;;19.85;9.48;;;14.60;99.90;;;;;;5056139;28;20055;-48
2023/10/10 06:48:21;;;;;;;20.50;9.77;;;14.60;99.90;;;;;;5055741;28;20123;-48
2023/10/10 06:50:49;;;;;;;20.45;10.52;;;14.60;99.90;;;;;;5055963;28;20037;-48
2023/10/10 06:53:29;;;;;;;20.08;9.95;;;14.60;99.90;;;;;;5055358;28;20108;-48
2023/10/10 06:55:55;;;;;;;20.83;9.15;;;14.60;99.90;;;;;;5055766;28;20052;-48
2023/10/10 06:58:20;;;;;;;24.48;10.90;;;14.50;99.90;;;;;;5055574;28;20094;-49
2023/10/10 07:00:47;;;;;;;21.77;10.70;;;14.50;99.90;;;;;;5055208;28;20041;-49
2023/10/10 07:03:18;;;;;;;21.10;11.02;;;14.60;99.90;;;;;;5055407;28;20404;-48
2023/10/10 07:05:45;;;;;;;20.00;10.30;;;14.60;99.90;;;;;;5055320;28;20056;-48
2023/10/10 07:08:19;;;;;;;24.05;10.55;;;14.60;99.90;;;;;;5055402;28;20098;-49
2023/10/10 07:10:45;;;;;;;20.98;9.52;;;14.60;99.90;;;;;;5055083;28;20397;-48
2023/10/10 07:13:14;;;;;;;17.90;8.75;;;14.60;99.90;;;;;;5055186;28;20029;-48
2023/10/10 07:15:41;;;;;;;17.58;9.52;;;14.70;99.90;;;;;;5055303;28;20025;-50
2023/10/10 07:18:14;;;;;;;18.75;9.85;;;14.70;99.90;;;;;;5055227;28;20457;-49
2023/10/10 07:23:36;;;;;;;17.48;8.68;;;14.80;99.90;;;;;;5055414;28;20370;-50
2023/10/10 07:26:23;;;;;;;18.65;8.93;;;14.80;99.90;;;;;;5055143;28;20170;-48
2023/10/10 07:28:48;;;;;;;15.75;8.07;;;14.90;99.90;;;;;;5054063;28;20060;-48
2023/10/10 07:31:17;;;;;;;18.88;8.30;;;15.00;99.90;;;;;;5054882;28;20061;-49
2023/10/10 07:33:45;;;;;;;16.80;7.85;;;15.00;99.90;;;;;;5055004;28;20024;-48
2023/10/10 07:36:12;;;;;;;16.23;8.13;;;15.00;99.90;;;;;;5055057;28;20041;-48
2023/10/10 07:38:39;;;;;;;15.13;8.40;;;15.10;99.90;;;;;;5054909;28;20021;-48
2023/10/10 07:41:05;;;;;;;16.67;8.07;;;15.10;99.90;;;;;;5054833;28;20028;-48
2023/10/10 07:43:37;;;;;;;20.33;9.63;;;15.20;99.90;;;;;;5054530;28;20044;-49
2023/10/10 07:46:22;;;;;;;17.15;7.95;;;15.20;99.90;;;;;;5055479;28;20033;-49
2023/10/10 07:48:53;;;;;;;14.85;7.38;;;15.30;99.90;;;;;;5055736;28;20107;-50
2023/10/10 07:51:28;;;;;;;14.35;7.40;;;15.50;99.90;;;;;;5053377;28;20169;-48
2023/10/10 07:54:00;;;;;;;14.60;7.63;;;15.50;99.90;;;;;;5054836;28;20029;-48
2023/10/10 07:56:30;;;;;;;10.40;5.88;;;15.70;99.90;;;;;;5054711;28;20346;-49
2023/10/10 07:58:57;;;;;;;13.30;6.57;;;15.60;99.90;;;;;;5053148;28;20166;-48
2023/10/10 08:01:23;;;;;;;13.90;7.60;;;15.60;99.90;;;;;;5053423;28;20124;-49
2023/10/10 08:03:49;;;;;;;9.40;5.95;;;15.60;99.90;;;;;;5054598;28;20068;-49
2023/10/10 08:06:21;;;;;;;11.68;5.25;;;15.50;99.90;;;;;;5054015;28;20069;-48
2023/10/10 08:08:49;;;;;;;12.68;6.57;;;15.50;99.90;;;;;;5054537;28;20037;-50
2023/10/10 08:11:24;;;;;;;11.13;4.50;;;15.50;99.90;;;;;;5053117;28;20092;-49
2023/10/10 08:13:50;;;;;;;11.15;5.60;;;15.60;99.90;;;;;;5054137;28;20090;-49
2023/10/10 08:16:29;;;;;;;10.35;5.13;;;15.60;99.90;;;;;;5054530;28;20108;-50
2023/10/10 08:18:55;;;;;;;9.90;5.05;;;15.60;99.90;;;;;;5054334;28;20033;-51
2023/10/10 08:21:24;;;;;;;7.32;4.18;;;15.70;99.90;;;;;;5053074;28;20510;-52
2023/10/10 08:23:59;;;;;;;11.18;4.80;;;15.90;99.90;;;;;;5056601;28;20040;-52
2023/10/10 08:26:29;;;;;;;9.63;4.88;;;16.10;99.90;;;;;;5058247;28;20093;-52
2023/10/10 08:28:55;;;;;;;7.78;4.65;;;16.40;99.90;;;;;;5056986;28;20493;-50
2023/10/10 08:31:22;;;;;;;8.10;3.92;;;16.80;99.90;;;;;;5058250;28;20029;-52
2023/10/10 08:33:48;;;;;;;7.22;4.30;;;17.10;99.90;;;;;;5058125;28;20331;-50
2023/10/10 08:36:23;;;;;;;6.72;3.58;;;17.10;99.90;;;;;;5058319;28;20044;-50
2023/10/10 08:38:56;;;;;;;8.02;4.63;;;17.30;99.90;;;;;;5057950;28;20025;-52
2023/10/10 08:41:26;;;;;;;6.72;4.40;;;17.30;99.90;;;;;;5058119;28;20053;-51
2023/10/10 08:43:53;;;;;;;8.85;4.00;;;18.10;99.90;;;;;;5058090;28;20036;-51
2023/10/10 08:46:24;;;;;;;7.80;3.80;;;18.30;99.90;;;;;;5057587;28;20044;-51
2023/10/10 08:48:50;;;;;;;8.32;3.72;;;18.90;99.90;;;;;;5057069;28;20102;-52
2023/10/10 08:51:17;;;;;;;7.55;3.50;;;19.50;99.90;;;;;;5056636;28;20095;-52
2023/10/10 08:53:43;;;;;;;12.43;3.53;;;20.10;99.90;;;;;;5056257;28;20037;-52
2023/10/10 08:56:09;;;;;;;11.45;5.07;;;20.00;99.90;;;;;;5057730;28;20457;-51
2023/10/10 08:58:36;;;;;;;11.07;3.97;;;19.80;99.90;;;;;;5058200;28;20025;-52
2023/10/10 09:01:02;;;;;;;7.97;3.60;;;19.50;99.90;;;;;;5056613;28;20055;-52
2023/10/10 09:03:28;;;;;;;7.95;3.83;;;19.40;99.90;;;;;;5057691;28;20048;-53
2023/10/10 09:05:55;;;;;;;7.40;3.25;;;19.50;99.90;;;;;;5057213;28;20517;-52
2023/10/10 09:08:26;;;;;;;4.63;3.05;;;19.30;99.90;;;;;;5057392;28;20108;-52
2023/10/10 09:10:56;;;;;;;7.03;3.72;;;19.10;99.90;;;;;;5057382;28;20037;-52
2023/10/10 09:13:21;;;;;;;7.35;4.35;;;19.50;99.90;;;;;;5057639;28;20163;-53
2023/10/10 09:15:56;;;;;;;5.82;3.15;;;20.10;99.90;;;;;;5057537;28;20064;-52
2023/10/10 09:18:23;;;;;;;9.60;3.08;;;20.10;99.90;;;;;;5056856;28;20036;-52
2023/10/10 09:21:17;;;;;;;7.30;3.28;;;19.50;99.90;;;;;;5057227;28;20029;-52
2023/10/10 09:23:52;;;;;;;10.15;4.22;;;19.90;99.90;;;;;;5057339;28;20025;-52
2023/10/10 09:28:55;;;;;;;8.90;3.50;;;20.90;99.90;;;;;;5055976;28;20035;-52
2023/10/10 09:31:31;;;;;;;8.98;3.67;;;21.20;99.90;;;;;;5056871;28;20076;-53
2023/10/10 09:33:57;;;;;;;6.63;3.00;;;21.30;99.90;;;;;;5055487;28;20120;-53
2023/10/10 09:36:37;;;;;;;7.40;3.15;;;21.20;99.90;;;;;;5057055;28;20021;-52
2023/10/10 09:39:14;;;;;;;7.18;2.70;;;21.00;99.90;;;;;;5057002;28;20430;-53
2023/10/10 09:44:49;;;;;;;7.90;3.40;;;21.00;99.90;;;;;;5041850;28;20040;-53
2023/10/10 09:49:46;;;;;;;10.13;3.78;;;21.10;99.90;;;;;;5039000;28;20076;-52
2023/10/10 09:55:25;;;;;;;10.02;3.45;;;21.20;99.90;;;;;;5056502;28;20044;-53
2023/10/10 09:58:01;;;;;;;13.35;4.30;;;21.20;99.90;;;;;;5056560;28;20120;-53
2023/10/10 10:06:38;;;;;;;9.00;4.00;;;20.80;99.90;;;;;;5056122;28;20060;-53
2023/10/10 10:09:19;;;;;;;9.27;4.30;;;20.90;99.90;;;;;;5049067;28;20040;-53
2023/10/10 10:11:56;;;;;;;5.70;3.30;;;20.40;99.90;;;;;;5056159;28;20041;-53
2023/10/10 10:14:35;;;;;;;9.45;3.90;;;20.40;99.90;;;;;;5056100;28;20033;-50
2023/10/10 10:17:13;;;;;;;8.88;4.70;;;20.40;99.90;;;;;;5054650;28;20025;-52
2023/10/10 10:19:45;;;;;;;9.77;4.05;;;20.80;99.90;;;;;;5056252;28;20454;-53
2023/10/10 10:22:18;;;;;;;8.82;4.32;;;21.10;99.90;;;;;;5056871;28;20354;-53
2023/10/10 10:24:46;;;;;;;9.27;4.10;;;21.40;99.90;;;;;;5055830;28;20044;-53
2023/10/10 10:27:35;;;;;;;6.47;3.53;;;21.80;99.90;;;;;;5055856;28;20029;-53
2023/10/10 10:32:55;;;;;;;10.30;3.83;;;21.30;99.90;;;;;;5055802;28;20060;-50
2023/10/10 10:35:21;;;;;;;12.70;3.92;;;21.30;99.90;;;;;;5055957;28;20032;-53
2023/10/10 10:37:59;;;;;;;7.82;3.72;;;21.40;99.90;;;;;;5054707;28;20033;-53
2023/10/10 10:40:51;;;;;;;9.05;3.65;;;20.50;99.90;;;;;;5055447;28;20052;-53
2023/10/10 10:43:20;;;;;;;11.60;4.07;;;20.50;99.90;;;;;;5054968;28;20461;-52
2023/10/10 10:46:11;;;;;;;8.02;3.78;;;20.90;99.90;;;;;;5053602;28;20110;-52
2023/10/10 10:48:39;;;;;;;12.07;3.95;;;20.70;99.90;;;;;;5055219;28;20044;-50
2023/10/10 10:51:23;;;;;;;8.70;4.30;;;20.80;99.90;;;;;;5054314;28;20025;-52
2023/10/10 10:53:58;;;;;;;12.10;3.97;;;21.10;99.90;;;;;;5055438;28;20090;-52
2023/10/10 11:01:43;;;;;;;10.15;3.85;;;22.90;99.40;;;;;;5039143;28;20041;-52
2023/10/10 11:04:14;;;;;;;7.90;3.28;;;23.00;98.30;;;;;;5055016;28;20032;-50
2023/10/10 11:07:03;;;;;;;10.20;3.63;;;23.00;96.90;;;;;;5054643;28;20057;-53
2023/10/10 11:09:30;;;;;;;8.23;3.17;;;22.90;97.80;;;;;;5055348;28;20511;-53
2023/10/10 11:12:02;;;;;;;9.27;4.18;;;22.80;97.40;;;;;;5054960;28;20112;-53
2023/10/10 11:14:29;;;;;;;8.60;3.92;;;22.50;99.90;;;;;;5053912;28;20029;-54
2023/10/10 11:16:57;;;;;;;7.40;3.75;;;23.00;98.50;;;;;;5055105;28;20051;-52
2023/10/10 11:21:59;;;;;;;7.45;3.20;;;23.00;99.40;;;;;;5054500;28;20379;-52
2023/10/10 11:24:26;;;;;;;6.50;3.13;;;22.90;99.00;;;;;;5053838;28;20033;-54
2023/10/10 11:29:41;;;;;;;10.70;3.92;;;22.80;99.60;;;;;;5054856;28;20045;-53
2023/10/10 11:32:08;;;;;;;7.55;3.30;;;22.50;99.90;;;;;;5054702;28;20033;-53
2023/10/10 11:34:43;;;;;;;7.47;3.45;;;22.50;99.90;;;;;;5054399;28;20415;-53
2023/10/10 11:37:33;;;;;;;12.30;4.15;;;22.60;99.90;;;;;;5053407;28;20029;-53
2023/10/10 11:42:54;;;;;;;10.35;3.55;;;23.40;96.60;;;;;;5053351;28;20112;-54
2023/10/10 11:45:25;;;;;;;8.40;3.60;;;22.60;98.70;;;;;;5054513;28;20116;-51
2023/10/10 11:47:51;;;;;;;11.57;3.88;;;22.50;99.90;;;;;;5054636;28;20098;-53
2023/10/10 11:50:18;;;;;;;8.13;3.78;;;21.90;99.90;;;;;;5054089;28;20047;-52
2023/10/10 11:52:56;;;;;;;11.65;4.90;;;21.00;99.90;;;;;;5054403;28;20036;-52
2023/10/10 11:55:22;;;;;;;8.73;3.75;;;20.70;99.90;;;;;;5054300;28;20087;-53
2023/10/10 11:57:51;;;;;;;8.52;3.67;;;20.40;99.90;;;;;;5054340;28;20086;-52
2023/10/10 12:00:29;;;;;;;7.45;3.55;;;20.20;99.90;;;;;;5054028;28;20033;-53
2023/10/10 12:02:57;;;;;;;5.70;2.70;;;20.00;99.90;;;;;;5054190;28;20071;-53
2023/10/10 12:07:54;;;;;;;7.28;3.40;;;19.80;99.90;;;;;;5054547;28;20136;-52
2023/10/10 12:10:25;;;;;;;10.32;3.22;;;19.80;99.90;;;;;;5053534;28;20501;-52
2023/10/10 12:12:55;;;;;;;12.23;4.10;;;19.60;99.90;;;;;;5054348;28;20029;-53
2023/10/10 12:15:22;;;;;;;10.88;3.65;;;19.40;99.90;;;;;;5053430;28;20025;-50
2023/10/10 12:17:48;;;;;;;11.13;4.03;;;19.30;99.90;;;;;;5054434;28;20033;-52
2023/10/10 12:20:16;;;;;;;14.38;4.78;;;19.20;99.90;;;;;;5053775;28;20037;-51
2023/10/10 12:22:42;;;;;;;8.38;3.97;;;19.20;99.90;;;;;;5053194;28;20029;-53
2023/10/10 12:25:13;;;;;;;10.35;4.45;;;19.30;99.90;;;;;;5036479;28;20491;-52
2023/10/10 12:27:46;;;;;;;8.10;3.15;;;19.30;99.90;;;;;;5054214;28;20024;-51
2023/10/10 12:30:13;;;;;;;7.93;3.25;;;19.20;99.90;;;;;;5053800;28;20108;-51
2023/10/10 12:32:38;;;;;;;9.60;3.88;;;19.20;99.90;;;;;;5053737;28;20033;-52
2023/10/10 12:35:10;;;;;;;12.63;4.53;;;19.10;99.90;;;;;;5054106;28;20477;-53
2023/10/10 12:37:37;;;;;;;10.48;3.85;;;19.10;99.90;;;;;;5053686;28;20051;-52
2023/10/10 12:40:09;;;;;;;10.20;3.67;;;19.10;99.90;;;;;;5053639;28;20108;-51
2023/10/10 12:42:35;;;;;;;11.48;4.18;;;19.10;99.90;;;;;;5054043;28;20028;-51
2023/10/10 12:45:01;;;;;;;11.23;4.20;;;19.00;99.90;;;;;;5053924;28;20049;-51
2023/10/10 12:47:31;;;;;;;9.15;3.78;;;18.90;99.90;;;;;;5053962;28;20044;-51
2023/10/10 12:50:00;;;;;;;10.45;4.28;;;18.80;99.90;;;;;;5052760;28;20033;-51
2023/10/10 12:52:34;;;;;;;9.75;4.05;;;19.10;99.90;;;;;;5053972;28;20459;-51
2023/10/10 12:55:01;;;;;;;11.40;3.83;;;19.50;99.90;;;;;;5053707;28;20029;-52
2023/10/10 12:57:32;;;;;;;8.43;3.22;;;19.40;99.90;;;;;;5052490;28;20323;-53
2023/10/10 13:00:23;;;;;;;10.70;3.95;;;19.20;99.90;;;;;;5052684;28;20108;-52
2023/10/10 13:02:44;;;;;;;10.73;4.05;;;19.10;99.90;;;;;;5053415;28;20043;-52
2023/10/10 13:05:12;;;;;;;10.68;4.10;;;20.00;99.90;;;;;;5035959;28;20124;-52
2023/10/10 13:07:41;;;;;;;13.15;4.80;;;20.40;99.90;;;;;;5053888;28;20029;-52
2023/10/10 13:10:10;;;;;;;11.73;3.83;;;20.40;99.90;;;;;;5057199;28;20033;-52
2023/10/10 13:12:45;;;;;;;10.00;3.80;;;20.50;99.90;;;;;;5057446;28;20117;-51
2023/10/10 13:16:22;;;;;;;7.65;3.00;;;19.90;99.90;;;;;;5057309;28;20477;-53
2023/10/10 13:18:19;;;;;;;11.63;3.72;;;19.80;99.90;;;;;;5047065;28;20071;-51
2023/10/10 13:20:50;;;;;;;9.70;3.25;;;20.10;99.90;;;;;;5057125;28;20079;-52
2023/10/10 13:23:16;;;;;;;10.18;3.83;;;20.20;99.90;;;;;;5056988;28;20041;-53
2023/10/10 13:25:42;;;;;;;8.05;3.42;;;20.10;99.90;;;;;;5056903;28;20114;-53
2023/10/10 13:28:17;;;;;;;11.73;3.50;;;20.00;99.90;;;;;;5057236;28;20433;-48
2023/10/10 13:30:43;;;;;;;8.95;3.60;;;19.80;99.90;;;;;;5057095;28;20444;-48
2023/10/10 13:33:08;;;;;;;8.18;3.28;;;19.60;99.90;;;;;;5056823;28;20047;-49
2023/10/10 13:35:37;;;;;;;10.73;2.95;;;19.50;99.90;;;;;;5056925;28;20100;-49
2023/10/10 13:38:07;;;;;;;11.15;3.28;;;19.40;99.90;;;;;;5055583;28;20037;-48
2023/10/10 13:40:37;;;;;;;10.50;3.40;;;19.40;99.90;;;;;;5055455;28;20058;-49
2023/10/10 13:43:14;;;;;;;11.70;3.35;;;19.40;99.90;;;;;;5055615;28;20037;-49
2023/10/10 13:45:41;;;;;;;7.57;3.45;;;19.30;99.90;;;;;;5056759;28;20090;-49
2023/10/10 13:48:14;;;;;;;11.00;3.83;;;19.90;99.90;;;;;;5055429;28;20118;-52
2023/10/10 13:50:44;;;;;;;9.88;3.10;;;19.90;99.90;;;;;;5054976;28;20033;-48
2023/10/10 13:53:13;;;;;;;10.05;4.25;;;19.90;99.90;;;;;;5055540;28;20531;-51
2023/10/10 13:55:46;;;;;;;12.95;4.40;;;19.80;99.90;;;;;;5038742;28;20039;-52
2023/10/10 13:58:13;;;;;;;12.50;4.25;;;19.50;99.90;;;;;;5056663;28;20021;-52
2023/10/10 14:00:41;;;;;;;12.25;4.28;;;19.10;99.90;;;;;;5055385;28;20124;-53
2023/10/10 14:03:06;;;;;;;16.25;4.05;;;18.80;99.90;;;;;;5056458;28;20477;-50
2023/10/10 14:05:36;;;;;;;13.20;4.57;;;18.60;99.90;;;;;;5056083;28;20056;-52
2023/10/10 14:08:03;;;;;;;16.58;4.97;;;18.50;99.90;;;;;;5055121;28;20412;-50
2023/10/10 14:10:38;;;;;;;12.15;4.28;;;18.40;99.90;;;;;;5055989;28;20120;-51
2023/10/10 14:13:18;;;;;;;11.65;4.72;;;18.40;99.90;;;;;;5056150;28;20451;-52
2023/10/10 14:15:54;;;;;;;14.45;4.60;;;18.40;99.90;;;;;;5055317;28;20044;-49
2023/10/10 14:18:26;;;;;;;9.95;3.88;;;18.30;99.90;;;;;;5054788;28;20446;-50
2023/10/10 14:20:53;;;;;;;7.25;3.05;;;18.20;99.90;;;;;;5053833;28;20032;-49
2023/10/10 14:23:21;;;;;;;12.38;5.65;;;18.20;99.90;;;;;;5054781;28;20040;-49
2023/10/10 14:25:48;;;;;;;14.43;5.47;;;18.20;99.90;;;;;;5055930;28;20040;-50
2023/10/10 14:28:16;;;;;;;16.33;5.85;;;18.20;99.90;;;;;;5054459;28;20036;-49
2023/10/10 14:30:49;;;;;;;19.60;5.80;;;18.00;99.90;;;;;;5054217;28;20437;-49
2023/10/10 14:33:18;;;;;;;19.13;5.68;;;17.90;99.90;;;;;;5054613;28;20044;-49
2023/10/10 14:35:44;;;;;;;20.00;5.37;;;17.80;99.90;;;;;;5054883;28;20029;-50
2023/10/10 14:38:14;;;;;;;19.83;6.53;;;17.80;99.90;;;;;;5055623;28;20033;-50
2023/10/10 14:40:41;;;;;;;14.93;5.15;;;17.80;99.90;;;;;;5055176;28;20059;-49
2023/10/10 14:43:07;;;;;;;20.05;7.00;;;17.70;99.90;;;;;;5055239;28;20047;-49
2023/10/10 14:45:34;;;;;;;19.70;8.15;;;17.60;99.90;;;;;;5055209;28;20036;-48
2023/10/10 14:48:04;;;;;;;18.58;7.18;;;17.60;99.90;;;;;;5055622;28;20032;-49
2023/10/10 14:50:36;;;;;;;24.98;8.13;;;17.60;99.90;;;;;;5055405;28;20029;-49
2023/10/10 14:53:08;;;;;;;18.67;6.07;;;17.50;99.90;;;;;;5055275;28;20446;-49
2023/10/10 14:55:39;;;;;;;21.45;7.82;;;17.50;99.90;;;;;;5055144;28;20039;-48
2023/10/10 14:58:08;;;;;;;13.45;4.97;;;17.50;99.90;;;;;;5053823;28;20060;-48
2023/10/10 15:00:39;;;;;;;19.38;6.97;;;17.40;99.90;;;;;;5055407;28;20442;-48
2023/10/10 15:03:12;;;;;;;14.68;5.78;;;17.30;99.90;;;;;;5055296;28;20430;-49
2023/10/10 15:05:47;;;;;;;24.20;7.25;;;17.30;99.90;;;;;;5055080;28;20120;-48
2023/10/10 15:08:14;;;;;;;23.75;8.27;;;17.20;99.90;;;;;;5054670;28;20029;-48
2023/10/10 15:10:40;;;;;;;21.38;7.50;;;17.00;99.90;;;;;;5054774;28;20036;-49
2023/10/10 15:13:16;;;;;;;22.48;7.15;;;16.80;99.90;;;;;;5055191;28;20025;-49
2023/10/10 15:15:45;;;;;;;14.60;5.35;;;16.80;99.90;;;;;;5054478;28;20033;-48
2023/10/10 15:18:13;;;;;;;21.58;7.25;;;16.50;99.90;;;;;;5054926;28;20045;-49
2023/10/10 15:20:45;;;;;;;21.42;7.88;;;16.40;99.90;;;;;;5055015;28;20117;-48
2023/10/10 15:23:11;;;;;;;17.15;8.02;;;16.40;99.90;;;;;;5054790;28;20442;-48
2023/10/10 15:25:39;;;;;;;19.25;6.80;;;16.30;99.90;;;;;;5054863;28;20044;-48
2023/10/10 15:28:07;;;;;;;22.60;9.20;;;16.20;99.90;;;;;;5054321;28;20036;-49
2023/10/10 15:30:36;;;;;;;24.40;8.45;;;16.20;99.90;;;;;;5054491;28;20116;-48
2023/10/10 15:33:05;;;;;;;18.35;6.68;;;16.20;99.90;;;;;;5053669;28;20035;-48